Cristino Castro, Brazil
Current Conditions -  °F | °C
As of 2:00 AM on Wednesday 26 Nov 2014 (Local Time) from SBPL Reporting Station
Few Clouds Few Clouds  
Wind Chill: 79°   Ceiling: Unl
Heat Index: 81°   Visibility: 6mi
Dew Point: 68°   Wind: 12mph
Humidity: 69%   Direction: 140°SE
Pressure: 29.88"   Gusts: NA
Location:  8.82°S, 44.22°W
Report Text: SBPL 260500Z 14010KT 9999 FEW020 26/20 Q1012
Loading
Personal Weather Stations






























Interactive Weather Map New forecast layout! Learn more

10-Day Weather Forecast

Advertisements
Track Severe Weather on mobile